createdAt,value
2023-05-03T04:58:32.588Z,31.94
2023-05-03T05:01:04.480Z,32.21
2023-05-03T05:03:54.285Z,32.05
2023-05-03T05:06:46.775Z,32.20
2023-05-03T05:10:42.395Z,32.10
2023-05-03T05:12:32.176Z,32.10
2023-05-03T05:18:48.525Z,32.07
2023-05-03T05:24:54.966Z,32.34
2023-05-03T05:27:32.573Z,32.31
2023-05-03T05:30:31.472Z,32.34
2023-05-03T05:33:21.617Z,32.31
2023-05-03T05:35:51.231Z,32.36
2023-05-03T05:38:21.072Z,32.36
2023-05-03T05:40:48.360Z,32.36
2023-05-03T05:43:25.242Z,32.36
2023-05-03T05:45:52.665Z,32.35
2023-05-03T05:48:20.117Z,32.21
2023-05-03T05:50:47.230Z,32.46
2023-05-03T05:53:14.689Z,32.26
2023-05-03T05:55:42.096Z,32.50
2023-05-03T05:58:12.185Z,32.53
2023-05-03T06:00:39.405Z,32.38
2023-05-03T06:03:09.001Z,32.63
2023-05-03T06:05:36.283Z,32.68
2023-05-03T06:08:04.457Z,32.74
2023-05-03T06:10:31.582Z,32.71
2023-05-03T06:12:58.664Z,32.63
2023-05-03T06:15:28.527Z,32.87
2023-05-03T06:17:58.368Z,32.96
2023-05-03T06:20:26.580Z,32.92
2023-05-03T06:22:53.795Z,32.93
2023-05-03T06:25:21.059Z,33.10
2023-05-03T06:27:48.158Z,32.97
2023-05-03T06:30:15.505Z,33.03
2023-05-03T06:32:43.427Z,33.05
2023-05-03T06:35:11.023Z,33.26
2023-05-03T06:37:40.599Z,33.16
2023-05-03T06:40:08.327Z,33.38
2023-05-03T06:42:43.943Z,33.58
2023-05-03T06:45:13.539Z,33.53
2023-05-03T06:47:57.406Z,33.59
2023-05-03T06:50:37.569Z,33.93
2023-05-03T06:53:47.753Z,34.04
2023-05-03T06:56:16.469Z,34.13
2023-05-03T06:58:49.585Z,34.19
2023-05-03T07:01:29.023Z,34.27
2023-05-03T07:03:56.202Z,34.38
2023-05-03T07:06:24.438Z,34.46
2023-05-03T07:08:55.212Z,34.52
2023-05-03T07:11:42.486Z,34.46
2023-05-03T07:14:09.709Z,34.58
2023-05-03T07:16:36.902Z,34.56
2023-05-03T07:19:04.023Z,34.57
2023-05-03T07:21:32.093Z,34.82
2023-05-03T07:23:59.198Z,34.88
2023-05-03T07:26:28.903Z,34.85
2023-05-03T07:28:56.308Z,34.94
2023-05-03T07:31:25.306Z,35.06
2023-05-03T07:33:52.452Z,34.94
2023-05-03T07:36:19.596Z,34.99
2023-05-03T07:38:46.956Z,35.09
2023-05-03T07:41:14.015Z,35.08
2023-05-03T07:43:41.703Z,35.09
2023-05-03T07:46:08.768Z,35.30
2023-05-03T07:48:35.829Z,35.16
2023-05-03T07:51:05.015Z,35.16
2023-05-03T07:53:32.172Z,35.24
2023-05-03T07:55:59.249Z,35.19
2023-05-03T07:58:38.827Z,35.17
2023-05-03T08:01:07.382Z,35.24
2023-05-03T08:03:34.585Z,35.45
2023-05-03T08:06:01.957Z,35.34
2023-05-03T08:08:29.648Z,35.49
2023-05-03T08:10:56.796Z,35.34
2023-05-03T08:13:24.087Z,35.51
2023-05-03T08:15:51.367Z,35.40
2023-05-03T08:18:18.549Z,35.50
2023-05-03T08:20:47.321Z,35.40
2023-05-03T08:23:15.746Z,35.43
2023-05-03T08:25:43.828Z,35.62
2023-05-03T08:28:10.886Z,35.51
2023-05-03T08:30:38.169Z,35.56
2023-05-03T08:33:05.630Z,35.60
2023-05-03T08:35:32.817Z,35.57
2023-05-03T08:37:59.898Z,35.85
2023-05-03T08:40:28.453Z,35.86
2023-05-03T08:42:59.933Z,35.67
2023-05-03T08:45:27.067Z,35.92
2023-05-03T08:47:55.553Z,35.97
2023-05-03T08:50:23.592Z,35.86
2023-05-03T08:52:51.021Z,36.00
2023-05-03T08:55:18.476Z,36.11
2023-05-03T08:57:47.945Z,36.13
2023-05-03T09:00:16.019Z,36.07
2023-05-03T09:02:43.392Z,36.06
2023-05-03T09:05:16.825Z,36.28
2023-05-03T09:08:12.248Z,36.41
2023-05-03T09:10:41.726Z,36.36
2023-05-03T09:13:10.197Z,36.47
2023-05-03T09:15:37.558Z,36.52
2023-05-03T09:18:08.822Z,36.57
2023-05-03T09:20:37.224Z,36.48
2023-05-03T09:23:04.620Z,36.72
2023-05-03T09:26:01.291Z,36.60
2023-05-03T09:28:28.488Z,36.77
2023-05-03T09:31:07.387Z,37.09
2023-05-03T09:33:34.736Z,37.19
2023-05-03T09:36:05.059Z,37.20
2023-05-03T09:38:34.275Z,37.37
2023-05-03T09:41:07.770Z,37.65
2023-05-03T09:43:36.216Z,37.68
2023-05-03T09:46:13.889Z,37.98
2023-05-03T09:48:41.523Z,37.98
2023-05-03T09:51:10.345Z,38.15
2023-05-03T09:53:38.980Z,38.32
2023-05-03T09:56:10.262Z,38.68
2023-05-03T09:58:37.668Z,38.96
2023-05-03T10:01:05.515Z,39.12
2023-05-03T10:03:44.259Z,39.68
2023-05-03T10:06:24.652Z,40.21
2023-05-03T10:09:04.165Z,40.67
2023-05-03T10:11:33.781Z,41.03
2023-05-03T10:14:01.550Z,41.29
2023-05-03T10:16:33.159Z,41.67
2023-05-03T10:19:11.481Z,41.99
2023-05-03T10:22:09.433Z,42.23
2023-05-03T10:24:38.488Z,42.29
2023-05-03T10:27:08.958Z,42.46
2023-05-03T10:29:46.315Z,42.69
2023-05-03T10:32:31.103Z,42.62
2023-05-03T10:35:03.478Z,42.73
2023-05-03T10:37:34.828Z,42.92
2023-05-03T10:40:18.454Z,42.91
2023-05-03T10:42:50.252Z,42.98
2023-05-03T10:45:23.166Z,42.89
2023-05-03T10:48:12.102Z,42.87
2023-05-03T10:50:40.735Z,42.64
2023-05-03T10:53:08.473Z,42.83
2023-05-03T10:55:36.192Z,42.79
2023-05-03T10:58:04.415Z,42.82
2023-05-03T11:00:39.495Z,42.91
2023-05-03T11:03:34.228Z,42.87
2023-05-03T11:06:03.477Z,43.07
2023-05-03T11:08:37.773Z,43.34
2023-05-03T11:11:10.173Z,43.41
2023-05-03T11:13:37.604Z,43.41
2023-05-03T11:16:06.304Z,43.56
2023-05-03T11:18:33.988Z,43.47
2023-05-03T11:21:01.529Z,43.41
2023-05-03T11:23:29.612Z,43.54
2023-05-03T11:26:00.107Z,43.72
2023-05-03T11:28:27.685Z,43.90
2023-05-03T11:30:55.112Z,44.01
2023-05-03T11:33:22.678Z,44.31
2023-05-03T11:35:50.084Z,44.40
2023-05-03T11:38:17.251Z,44.69
2023-05-03T11:40:44.650Z,44.65
2023-05-03T11:43:11.962Z,44.79
2023-05-03T11:45:45.736Z,44.68
2023-05-03T11:48:14.210Z,44.80
2023-05-03T11:50:56.538Z,44.65
2023-05-03T11:53:25.209Z,44.71
2023-05-03T11:55:56.280Z,44.63
2023-05-03T11:58:27.163Z,44.78
2023-05-03T12:00:56.718Z,44.69
2023-05-03T12:03:32.145Z,44.77
2023-05-03T12:06:02.371Z,44.40
2023-05-03T12:08:37.021Z,44.27
2023-05-03T12:11:07.621Z,44.23
2023-05-03T12:13:40.716Z,44.21
2023-05-03T12:16:13.335Z,44.07
2023-05-03T12:18:56.492Z,44.12
2023-05-03T12:23:57.431Z,44.29
2023-05-03T12:26:26.727Z,44.26
2023-05-03T12:28:56.196Z,44.27
2023-05-03T12:31:24.419Z,44.41
2023-05-03T12:36:25.758Z,44.60
2023-05-03T12:38:56.262Z,44.76
2023-05-03T12:42:04.553Z,44.89
2023-05-03T12:44:17.129Z,45.00
2023-05-03T12:46:45.524Z,44.85
2023-05-03T12:49:15.260Z,44.91
2023-05-03T12:51:43.132Z,44.77
2023-05-03T12:54:12.208Z,44.70
2023-05-03T12:56:40.641Z,44.63
2023-05-03T13:03:20.137Z,44.59
2023-05-03T13:41:39.287Z,43.95
2023-05-03T13:44:17.094Z,44.08
2023-05-03T13:46:48.886Z,44.00
2023-05-03T13:49:18.532Z,43.99
2023-05-03T13:51:53.247Z,43.95
2023-05-03T13:54:26.529Z,43.81
2023-05-03T13:57:05.787Z,43.78
2023-05-03T13:59:34.102Z,43.50
2023-05-03T14:02:02.688Z,43.37
2023-05-03T14:04:32.801Z,43.37
2023-05-03T14:07:03.377Z,43.03
2023-05-03T14:09:32.439Z,42.71
2023-05-03T14:12:00.835Z,42.46
2023-05-03T14:14:29.204Z,42.16
2023-05-03T14:16:57.616Z,41.95
2023-05-03T14:19:25.951Z,41.70
2023-05-03T14:22:00.701Z,41.65
2023-05-03T14:24:29.235Z,41.57
2023-05-03T14:26:57.577Z,41.38
2023-05-03T14:29:25.946Z,41.37
2023-05-03T14:31:53.975Z,41.32
2023-05-03T14:34:21.924Z,41.22
2023-05-03T14:36:53.985Z,41.06
2023-05-03T14:39:26.354Z,40.96
2023-05-03T14:41:59.610Z,40.91
2023-05-03T14:44:31.538Z,40.72
2023-05-03T14:46:59.410Z,40.60
2023-05-03T14:49:26.822Z,40.47
2023-05-03T14:51:54.283Z,40.48
2023-05-03T14:54:23.532Z,40.41
2023-05-03T14:56:51.347Z,40.23
2023-05-03T14:59:18.929Z,40.17
2023-05-03T15:01:46.350Z,40.18
2023-05-03T15:04:13.454Z,40.19
2023-05-03T15:06:41.935Z,40.12
2023-05-03T15:09:11.515Z,40.10
2023-05-03T15:11:38.744Z,40.11
2023-05-03T15:14:06.300Z,39.88
2023-05-03T15:16:35.377Z,39.83
2023-05-03T15:19:04.329Z,39.76
2023-05-03T15:21:31.833Z,39.69
2023-05-03T15:23:59.034Z,39.53
2023-05-03T15:26:26.108Z,39.50
2023-05-03T15:28:54.048Z,39.50
2023-05-03T15:31:22.045Z,39.40
2023-05-03T15:33:49.902Z,39.39
2023-05-03T15:36:17.780Z,39.47
2023-05-03T15:38:44.985Z,39.25
2023-05-03T15:41:12.011Z,39.16
2023-05-03T15:43:39.251Z,39.05
2023-05-03T15:46:07.060Z,39.05
2023-05-03T15:48:34.344Z,38.98
2023-05-03T15:51:01.522Z,39.05
2023-05-03T15:53:28.753Z,38.82
2023-05-03T15:55:59.016Z,38.90
2023-05-03T15:58:30.807Z,38.87
2023-05-03T16:00:59.492Z,38.59
2023-05-03T16:03:28.827Z,38.56
2023-05-03T16:05:57.152Z,38.39
2023-05-03T16:08:24.931Z,38.36
2023-05-03T16:10:55.839Z,38.30
2023-05-03T16:13:25.091Z,38.18
2023-05-03T16:15:52.851Z,38.36
2023-05-03T16:18:21.133Z,38.18
2023-05-03T16:20:49.843Z,38.17
2023-05-03T16:23:17.471Z,38.07
2023-05-03T16:25:44.659Z,38.03
2023-05-03T16:28:11.896Z,38.17
2023-05-03T16:30:39.025Z,37.93
2023-05-03T16:33:07.093Z,37.89
2023-05-03T16:35:34.369Z,37.94
2023-05-03T16:38:01.898Z,37.93
2023-05-03T16:40:28.992Z,37.75
2023-05-03T16:42:59.258Z,37.84
2023-05-03T16:45:26.436Z,37.86
2023-05-03T16:47:53.705Z,37.84
2023-05-03T16:50:20.989Z,37.70
2023-05-03T16:52:48.128Z,37.66
2023-05-03T16:55:15.196Z,37.79
2023-05-03T16:57:42.684Z,37.65
2023-05-03T17:00:11.404Z,37.62
2023-05-03T17:02:40.164Z,37.48
2023-05-03T17:05:08.721Z,37.49
2023-05-03T17:07:36.254Z,37.55
2023-05-03T17:10:04.697Z,37.36
2023-05-03T17:12:32.422Z,37.31
2023-05-03T17:14:59.501Z,37.46
2023-05-03T17:17:26.749Z,37.26
2023-05-03T17:19:53.882Z,37.30
2023-05-03T17:22:21.084Z,37.40
2023-05-03T17:24:48.167Z,37.21
2023-05-03T17:27:15.422Z,37.29
2023-05-03T17:29:42.792Z,37.13
2023-05-03T17:32:09.846Z,37.22
2023-05-03T17:34:37.061Z,37.17
2023-05-03T17:37:04.273Z,37.09
2023-05-03T17:39:32.753Z,37.14
2023-05-03T17:44:45.774Z,36.89
2023-05-03T17:47:12.970Z,36.98
2023-05-03T17:49:40.153Z,36.99
2023-05-03T17:52:07.312Z,37.04
2023-05-03T17:54:35.581Z,36.97
2023-05-03T17:57:03.642Z,36.86
2023-05-03T17:59:30.915Z,36.90
2023-05-03T18:01:58.134Z,36.88
2023-05-03T18:04:27.180Z,36.90
2023-05-03T18:06:54.345Z,36.89
2023-05-03T18:09:21.508Z,36.94
2023-05-03T18:11:49.563Z,36.90
2023-05-03T18:14:16.785Z,36.78
2023-05-03T18:16:57.498Z,36.77
2023-05-03T18:19:28.321Z,36.77
2023-05-03T18:21:55.442Z,36.80
2023-05-03T18:24:22.777Z,36.71
2023-05-03T18:26:49.947Z,36.67
2023-05-03T18:29:17.186Z,36.82
2023-05-03T18:31:44.250Z,36.77
2023-05-03T18:34:11.500Z,36.74
2023-05-03T18:36:39.431Z,36.70
2023-05-03T18:39:06.465Z,36.68
2023-05-03T18:41:33.768Z,36.57
2023-05-03T18:44:00.974Z,36.67
2023-05-03T18:46:28.154Z,36.49
2023-05-03T18:48:58.314Z,36.44
2023-05-03T18:51:25.438Z,36.46
2023-05-03T18:53:52.532Z,36.32
2023-05-03T18:56:19.669Z,36.35
2023-05-03T18:58:49.889Z,36.25
2023-05-03T19:01:17.124Z,36.32
2023-05-03T19:03:44.334Z,36.21
2023-05-03T19:06:11.775Z,36.21
2023-05-03T19:08:39.102Z,36.34
2023-05-03T19:11:10.617Z,36.23
2023-05-03T19:13:38.047Z,36.16
2023-05-03T19:16:05.606Z,36.26
2023-05-03T19:18:32.786Z,36.03
2023-05-03T19:21:01.600Z,36.10
2023-05-03T19:23:39.745Z,36.11
2023-05-03T19:26:07.515Z,36.12
2023-05-03T19:28:34.630Z,36.03
2023-05-03T19:31:05.332Z,35.98
2023-05-03T19:33:32.596Z,36.03
2023-05-03T19:36:06.837Z,35.93
2023-05-03T19:38:41.730Z,35.97
2023-05-03T19:41:12.528Z,35.96
2023-05-03T19:43:40.760Z,36.05
2023-05-03T19:46:26.105Z,35.86
